Time;durP1;ratioP1;P1;durP2;ratioP2;P2;SDS_P1;SDS_P2;PMS_P1;PMS_P2;Temp;Humidity;BMP_temperature;BMP_pressure;BME280_temperature;BME280_humidity;BME280_pressure;Samples;Min_cycle;Max_cycle;Signal;HPM_P1;HPM_P2
2023/02/26 00:00:57;;;;;;;3.58;1.40;;;-2.60;99.90;;;;;;2068387;28;20193;-67
2023/02/26 00:02:03;;;;;;;2.35;1.60;;;-2.60;99.90;;;;;;2068096;28;20177;-67
2023/02/26 00:03:04;;;;;;;5.23;1.60;;;-2.60;99.90;;;;;;2067910;28;20272;-67
2023/02/26 00:04:09;;;;;;;3.60;1.60;;;-2.60;99.90;;;;;;2068054;28;20209;-67
2023/02/26 00:05:15;;;;;;;2.20;1.58;;;-2.60;99.90;;;;;;2067891;28;20191;-67
2023/02/26 00:06:21;;;;;;;3.00;1.63;;;-2.70;99.90;;;;;;2066996;28;20305;-67
2023/02/26 00:07:28;;;;;;;3.47;1.73;;;-2.80;99.90;;;;;;2064952;28;20181;-67
2023/02/26 00:08:34;;;;;;;2.08;1.52;;;-2.70;99.90;;;;;;2065722;28;20266;-67
2023/02/26 00:09:39;;;;;;;4.57;1.50;;;-2.70;99.90;;;;;;2066902;28;20249;-67
2023/02/26 00:10:45;;;;;;;2.38;1.73;;;-2.70;99.90;;;;;;2065798;28;20184;-67
2023/02/26 00:11:51;;;;;;;2.95;1.40;;;-2.60;99.90;;;;;;2063613;28;20209;-67
2023/02/26 00:12:56;;;;;;;4.40;1.27;;;-2.60;99.90;;;;;;2068043;28;20295;-67
2023/02/26 00:14:02;;;;;;;4.63;1.70;;;-2.60;99.90;;;;;;2071583;28;20185;-67
2023/02/26 00:15:07;;;;;;;5.03;1.75;;;-2.50;99.90;;;;;;2064861;28;20299;-67
2023/02/26 00:16:32;;;;;;;3.10;1.60;;;-2.40;99.90;;;;;;2067966;28;20188;-67
2023/02/26 00:18:06;;;;;;;3.65;1.40;;;-2.30;99.90;;;;;;2065987;28;20204;-67
2023/02/26 00:19:10;;;;;;;1.80;1.23;;;-2.30;99.90;;;;;;2069805;28;20189;-67
2023/02/26 00:20:18;;;;;;;1.85;1.50;;;-2.20;99.90;;;;;;2069686;28;20361;-67
2023/02/26 00:21:25;;;;;;;4.35;1.70;;;-2.20;99.90;;;;;;2069650;28;20539;-67
2023/02/26 00:22:31;;;;;;;5.13;1.20;;;-2.30;99.90;;;;;;2068682;28;20331;-67
2023/02/26 00:23:37;;;;;;;6.43;1.63;;;-2.20;99.90;;;;;;2069120;28;20224;-70
2023/02/26 00:24:43;;;;;;;1.38;1.20;;;-2.20;99.90;;;;;;2066257;28;20185;-66
2023/02/26 00:25:49;;;;;;;2.30;1.55;;;-2.10;99.90;;;;;;2068171;28;20213;-66
2023/02/26 00:26:55;;;;;;;4.53;1.42;;;-2.00;99.90;;;;;;2069603;28;20173;-65
2023/02/26 00:28:01;;;;;;;1.70;1.27;;;-2.00;99.90;;;;;;2068938;28;20191;-65
2023/02/26 00:29:04;;;;;;;1.88;1.60;;;-2.10;99.90;;;;;;2069380;28;20256;-66
2023/02/26 00:30:11;;;;;;;2.08;1.38;;;-2.00;99.90;;;;;;2070018;28;20204;-66
2023/02/26 00:31:19;;;;;;;2.33;1.30;;;-2.00;99.90;;;;;;2069904;28;20182;-66
2023/02/26 00:32:25;;;;;;;3.88;1.30;;;-1.90;99.90;;;;;;2069240;28;20719;-67
2023/02/26 00:33:32;;;;;;;2.38;1.58;;;-1.80;99.80;;;;;;2069071;28;20215;-66
2023/02/26 00:34:39;;;;;;;3.03;1.40;;;-1.80;99.80;;;;;;2069568;28;20268;-66
2023/02/26 00:35:45;;;;;;;4.80;1.65;;;-1.80;99.90;;;;;;2066472;28;20635;-66
2023/02/26 00:37:12;;;;;;;3.50;1.45;;;-1.80;99.90;;;;;;2068765;28;20201;-66
2023/02/26 00:38:18;;;;;;;5.35;1.40;;;-1.80;99.30;;;;;;2064252;28;20375;-66
2023/02/26 00:39:47;;;;;;;2.90;1.33;;;-1.70;99.30;;;;;;2058973;28;20179;-65
2023/02/26 00:40:52;;;;;;;2.55;1.58;;;-1.60;99.10;;;;;;2065781;28;20672;-66
2023/02/26 00:41:55;;;;;;;3.22;1.70;;;-1.70;98.70;;;;;;2069542;28;20194;-66
2023/02/26 00:43:05;;;;;;;1.98;1.52;;;-1.80;99.30;;;;;;2069968;28;20194;-65
2023/02/26 00:44:06;;;;;;;2.40;1.60;;;-1.80;99.30;;;;;;2070092;28;20212;-65
2023/02/26 00:45:11;;;;;;;2.20;1.42;;;-1.80;98.80;;;;;;2069452;28;20185;-66
2023/02/26 00:46:30;;;;;;;3.65;1.63;;;-1.70;98.60;;;;;;2065183;28;20601;-65
2023/02/26 00:48:13;;;;;;;2.75;1.77;;;-1.60;98.50;;;;;;2064738;28;20177;-66
2023/02/26 00:49:49;;;;;;;2.95;1.30;;;-1.50;98.50;;;;;;2067024;28;20178;-66
2023/02/26 00:51:09;;;;;;;3.03;1.58;;;-1.40;98.40;;;;;;2063646;28;20185;-66
2023/02/26 00:52:52;;;;;;;3.92;1.48;;;-1.60;98.60;;;;;;2060535;28;20991;-66
2023/02/26 00:54:10;;;;;;;1.88;1.60;;;-1.70;98.10;;;;;;2066540;28;20197;-66
2023/02/26 00:55:16;;;;;;;3.70;1.58;;;-1.70;98.70;;;;;;2064533;28;20259;-66
2023/02/26 00:56:22;;;;;;;2.03;1.48;;;-1.70;98.40;;;;;;2065571;28;20197;-66
2023/02/26 00:57:27;;;;;;;3.72;1.77;;;-1.70;98.30;;;;;;2069447;28;20189;-66
2023/02/26 00:58:33;;;;;;;4.78;1.77;;;-1.60;98.10;;;;;;2069294;28;20234;-66
2023/02/26 00:59:39;;;;;;;2.25;1.60;;;-1.70;98.20;;;;;;2069880;28;20573;-66
2023/02/26 01:00:45;;;;;;;3.83;1.60;;;-1.80;98.60;;;;;;2061335;28;20292;-66
2023/02/26 01:01:51;;;;;;;2.97;1.70;;;-1.90;99.40;;;;;;2058434;28;20185;-66
2023/02/26 01:02:57;;;;;;;3.40;1.80;;;-2.10;99.90;;;;;;2069480;28;20181;-65
2023/02/26 01:04:03;;;;;;;3.03;1.55;;;-2.10;99.90;;;;;;2068673;28;20229;-66
2023/02/26 01:05:10;;;;;;;2.38;1.30;;;-2.10;99.90;;;;;;2062645;28;20186;-66
2023/02/26 01:06:19;;;;;;;3.80;1.85;;;-2.10;99.90;;;;;;2069351;28;20184;-66
2023/02/26 01:07:25;;;;;;;2.60;1.92;;;-2.10;99.90;;;;;;2058077;28;20276;-66
2023/02/26 01:08:47;;;;;;;3.85;2.75;;;-2.10;99.90;;;;;;2065425;28;20215;-66
2023/02/26 01:09:53;;;;;;;2.20;1.70;;;-2.10;99.90;;;;;;2067067;28;20177;-66
2023/02/26 01:10:59;;;;;;;2.40;1.48;;;-2.10;99.90;;;;;;2062580;28;20203;-66
2023/02/26 01:12:10;;;;;;;3.10;1.80;;;-2.10;99.90;;;;;;2054362;28;20669;-66
2023/02/26 01:13:16;;;;;;;2.60;1.58;;;-2.10;99.90;;;;;;2056281;28;20193;-66
2023/02/26 01:14:23;;;;;;;2.15;1.60;;;-2.00;99.90;;;;;;2068708;28;20665;-66
2023/02/26 01:15:29;;;;;;;2.42;1.50;;;-2.00;99.90;;;;;;2069226;28;20285;-66
2023/02/26 01:16:49;;;;;;;3.97;1.90;;;-1.90;99.90;;;;;;2065491;28;20642;-66
2023/02/26 01:18:06;;;;;;;3.75;1.80;;;-1.90;99.90;;;;;;2064777;28;20826;-66
2023/02/26 01:19:24;;;;;;;4.80;1.90;;;-1.90;99.90;;;;;;2069066;28;20189;-66
2023/02/26 01:20:40;;;;;;;4.90;1.90;;;-1.90;99.90;;;;;;2067671;28;20216;-66
2023/02/26 01:21:55;;;;;;;2.58;1.60;;;-1.90;99.90;;;;;;2061371;28;20180;-66
2023/02/26 01:23:09;;;;;;;2.92;1.73;;;-1.90;99.90;;;;;;2063194;28;20581;-66
2023/02/26 01:24:17;;;;;;;3.58;1.67;;;-1.80;99.90;;;;;;2059015;28;20222;-66
2023/02/26 01:25:49;;;;;;;1.77;1.65;;;-1.80;99.90;;;;;;2065851;28;20181;-67
2023/02/26 01:26:51;;;;;;;3.80;1.83;;;-1.80;99.90;;;;;;2061664;28;20622;-66
2023/02/26 01:27:56;;;;;;;3.13;2.00;;;-1.80;99.90;;;;;;2067877;28;20564;-66
2023/02/26 01:29:02;;;;;;;2.25;1.70;;;-1.80;99.90;;;;;;2060895;28;20201;-66
2023/02/26 01:30:05;;;;;;;2.17;1.80;;;-1.90;99.90;;;;;;2061042;28;20280;-66
2023/02/26 01:31:37;;;;;;;3.05;1.50;;;-1.90;99.90;;;;;;2069331;28;20910;-65
2023/02/26 01:32:48;;;;;;;3.90;1.70;;;-1.80;99.90;;;;;;2066192;28;20178;-66
2023/02/26 01:34:02;;;;;;;2.47;1.73;;;-1.80;99.90;;;;;;2062828;28;20199;-66
2023/02/26 01:35:14;;;;;;;3.00;1.95;;;-1.90;99.90;;;;;;2062912;28;20192;-66
2023/02/26 01:36:23;;;;;;;3.42;1.90;;;-2.00;99.90;;;;;;2065605;28;20208;-66
2023/02/26 01:37:38;;;;;;;5.50;1.77;;;-2.00;99.90;;;;;;2061314;28;20300;-66
2023/02/26 01:39:13;;;;;;;2.53;2.03;;;-2.00;99.90;;;;;;2068418;28;20566;-66
2023/02/26 01:40:27;;;;;;;2.47;1.80;;;-2.00;99.90;;;;;;2068351;28;20214;-66
2023/02/26 01:41:54;;;;;;;4.30;2.03;;;-2.10;99.90;;;;;;2069153;28;20239;-66
2023/02/26 01:43:12;;;;;;;3.22;1.70;;;-2.10;99.90;;;;;;2067625;28;20197;-66
2023/02/26 01:45:07;;;;;;;1.98;1.50;;;-2.10;99.90;;;;;;2067076;28;20209;-66
2023/02/26 01:46:21;;;;;;;4.55;2.10;;;-2.20;99.90;;;;;;2066744;28;20277;-66
2023/02/26 01:48:08;;;;;;;2.88;1.80;;;-2.30;99.90;;;;;;2060951;28;20281;-66
2023/02/26 01:49:16;;;;;;;3.55;2.13;;;-2.30;99.90;;;;;;2065819;28;20180;-66
2023/02/26 01:50:28;;;;;;;2.10;1.70;;;-2.30;99.90;;;;;;2068210;28;20217;-66
2023/02/26 01:51:48;;;;;;;2.88;2.00;;;-2.30;99.90;;;;;;2060477;28;20193;-66
2023/02/26 01:53:21;;;;;;;5.30;2.00;;;-2.40;99.90;;;;;;2061320;28;20242;-66
2023/02/26 01:54:33;;;;;;;6.47;1.77;;;-2.30;99.90;;;;;;2056103;28;20206;-66
2023/02/26 01:55:44;;;;;;;2.33;1.60;;;-2.30;99.90;;;;;;2054363;28;20186;-66
2023/02/26 01:57:14;;;;;;;2.65;2.00;;;-2.30;99.90;;;;;;2062631;28;20265;-66
2023/02/26 01:58:21;;;;;;;2.47;1.80;;;-2.20;99.90;;;;;;2064034;28;20630;-66
2023/02/26 01:59:27;;;;;;;3.30;1.90;;;-2.20;99.90;;;;;;2050095;28;20229;-66
2023/02/26 02:00:32;;;;;;;1.73;1.60;;;-2.20;99.70;;;;;;2054635;28;20310;-66
2023/02/26 02:01:39;;;;;;;3.38;1.80;;;-2.20;99.80;;;;;;2069658;28;20213;-66
2023/02/26 02:02:44;;;;;;;3.78;1.88;;;-2.30;99.90;;;;;;2069423;28;20182;-66
2023/02/26 02:03:49;;;;;;;2.75;1.60;;;-2.20;99.90;;;;;;2065659;28;20212;-65
2023/02/26 02:04:54;;;;;;;2.75;1.75;;;-2.20;99.90;;;;;;2068956;28;20232;-66
2023/02/26 02:06:17;;;;;;;2.60;1.67;;;-2.20;99.50;;;;;;2069225;28;20284;-66
2023/02/26 02:07:22;;;;;;;2.63;1.85;;;-2.20;99.20;;;;;;2068833;28;20571;-65
2023/02/26 02:08:30;;;;;;;3.00;1.55;;;-2.20;99.40;;;;;;2067724;28;20201;-66
2023/02/26 02:09:36;;;;;;;6.15;3.00;;;-2.20;99.50;;;;;;2068351;28;20182;-66
2023/02/26 02:10:46;;;;;;;2.85;1.77;;;-2.30;99.20;;;;;;2065031;28;20181;-66
2023/02/26 02:12:25;;;;;;;3.70;1.80;;;-2.40;99.60;;;;;;2068350;28;20594;-65
2023/02/26 02:14:00;;;;;;;6.32;1.90;;;-2.40;99.90;;;;;;2057788;28;20192;-66
2023/02/26 02:15:45;;;;;;;3.72;1.55;;;-2.40;99.90;;;;;;2053241;28;20686;-66
2023/02/26 02:17:11;;;;;;;2.88;1.40;;;-2.30;99.90;;;;;;2065497;28;20375;-66
2023/02/26 02:19:03;;;;;;;3.67;2.28;;;-2.30;99.90;;;;;;2066499;28;20209;-66
2023/02/26 02:20:43;;;;;;;3.00;2.03;;;-2.40;99.90;;;;;;2066785;28;20227;-66
2023/02/26 02:22:10;;;;;;;1.95;1.50;;;-2.40;99.90;;;;;;2066162;28;20662;-65
2023/02/26 02:23:44;;;;;;;2.47;1.60;;;-2.30;99.80;;;;;;2068736;28;20192;-65
2023/02/26 02:25:34;;;;;;;1.98;1.30;;;-2.30;99.40;;;;;;2068224;28;20596;-66
2023/02/26 02:27:03;;;;;;;2.72;1.63;;;-2.40;99.90;;;;;;2068711;28;20186;-65
2023/02/26 02:28:41;;;;;;;3.40;1.52;;;-2.40;99.90;;;;;;2067439;28;20192;-66
2023/02/26 02:30:04;;;;;;;2.40;1.92;;;-2.40;99.90;;;;;;2064477;28;20705;-66
2023/02/26 02:31:16;;;;;;;2.25;1.67;;;-2.30;99.60;;;;;;2053889;28;20225;-66
2023/02/26 02:33:00;;;;;;;3.40;1.40;;;-2.30;99.20;;;;;;2059958;28;20185;-65
2023/02/26 02:34:24;;;;;;;2.05;1.85;;;-2.40;99.20;;;;;;2047893;28;20283;-66
2023/02/26 02:35:54;;;;;;;4.60;1.90;;;-2.40;99.40;;;;;;2061035;28;20657;-66
2023/02/26 02:37:29;;;;;;;2.67;1.80;;;-2.30;98.90;;;;;;2066547;28;20185;-65
2023/02/26 02:38:47;;;;;;;3.53;1.70;;;-2.30;98.40;;;;;;2067664;28;20185;-65
2023/02/26 02:40:00;;;;;;;2.45;1.50;;;-2.30;98.50;;;;;;2068767;28;20232;-66
2023/02/26 02:41:13;;;;;;;1.63;1.30;;;-2.30;98.50;;;;;;2057377;28;20682;-65
2023/02/26 02:42:28;;;;;;;2.67;1.50;;;-2.30;98.80;;;;;;2052834;28;20186;-65
2023/02/26 02:43:38;;;;;;;3.53;1.65;;;-2.30;99.00;;;;;;2059902;28;20228;-65
2023/02/26 02:44:54;;;;;;;1.98;1.52;;;-2.40;99.30;;;;;;2056487;28;20183;-65
2023/02/26 02:46:04;;;;;;;2.67;1.90;;;-2.50;99.60;;;;;;2060112;28;20668;-65
2023/02/26 02:47:10;;;;;;;2.50;1.70;;;-2.60;99.90;;;;;;2060694;28;20185;-65
2023/02/26 02:48:46;;;;;;;2.60;1.60;;;-2.70;99.90;;;;;;2067832;28;20196;-66
2023/02/26 02:50:04;;;;;;;4.05;1.75;;;-2.60;99.90;;;;;;2066496;28;20958;-66
2023/02/26 02:51:21;;;;;;;5.97;2.13;;;-2.60;99.50;;;;;;2065423;28;20243;-66
2023/02/26 02:52:35;;;;;;;2.78;1.50;;;-2.60;98.90;;;;;;2064606;28;20279;-66
2023/02/26 02:54:00;;;;;;;6.53;1.75;;;-2.50;98.80;;;;;;2067956;28;20714;-66
2023/02/26 02:55:33;;;;;;;2.83;1.60;;;-2.50;98.80;;;;;;2062458;28;20189;-66
2023/02/26 02:56:46;;;;;;;6.80;1.67;;;-2.50;98.90;;;;;;2065547;28;20192;-66
2023/02/26 02:58:02;;;;;;;2.78;1.83;;;-2.50;98.30;;;;;;2067672;28;20332;-66
2023/02/26 02:59:50;;;;;;;3.22;2.08;;;-2.70;98.80;;;;;;2062600;28;20637;-66
2023/02/26 03:01:03;;;;;;;2.30;1.45;;;-2.70;99.20;;;;;;2060303;28;20558;-66
2023/02/26 03:02:16;;;;;;;2.15;1.38;;;-2.70;99.70;;;;;;2055657;28;20183;-66
2023/02/26 03:03:51;;;;;;;4.85;1.73;;;-2.70;99.60;;;;;;2054400;28;20186;-66
2023/02/26 03:04:57;;;;;;;3.20;1.88;;;-2.70;99.40;;;;;;2063065;28;20185;-65
2023/02/26 03:06:03;;;;;;;7.00;1.92;;;-2.70;99.80;;;;;;2068673;28;20177;-65
2023/02/26 03:07:04;;;;;;;4.47;1.52;;;-2.70;99.90;;;;;;2068242;28;20185;-66
2023/02/26 03:08:15;;;;;;;3.65;1.80;;;-2.70;99.90;;;;;;2068045;28;20178;-66
2023/02/26 03:09:17;;;;;;;3.13;1.75;;;-2.70;99.50;;;;;;2068345;28;20183;-66
2023/02/26 03:10:24;;;;;;;1.80;1.40;;;-2.60;99.10;;;;;;2060396;28;20740;-65
2023/02/26 03:11:27;;;;;;;2.88;1.60;;;-2.70;99.00;;;;;;2067776;28;20189;-66
2023/02/26 03:12:33;;;;;;;5.00;2.25;;;-2.60;98.80;;;;;;2068102;28;20200;-65
2023/02/26 03:13:39;;;;;;;3.88;2.13;;;-2.50;98.60;;;;;;2068390;28;20185;-66
2023/02/26 03:14:44;;;;;;;1.92;1.55;;;-2.50;99.00;;;;;;2068474;28;20611;-65
2023/02/26 03:16:30;;;;;;;2.80;1.55;;;-2.60;99.10;;;;;;2057511;28;20585;-66
2023/02/26 03:17:50;;;;;;;2.03;1.50;;;-2.60;98.90;;;;;;2065807;28;20200;-65
2023/02/26 03:19:21;;;;;;;3.30;1.65;;;-2.60;98.10;;;;;;2068406;28;20173;-65
2023/02/26 03:20:34;;;;;;;3.03;1.60;;;-2.70;98.30;;;;;;2061293;28;20247;-65
2023/02/26 03:22:01;;;;;;;3.08;1.50;;;-2.70;98.90;;;;;;2061787;28;20186;-65
2023/02/26 03:23:33;;;;;;;4.40;2.05;;;-2.70;99.50;;;;;;2063516;28;20189;-66
2023/02/26 03:24:44;;;;;;;3.35;1.95;;;-2.60;99.10;;;;;;2062195;28;20237;-65
2023/02/26 03:26:02;;;;;;;2.58;1.85;;;-2.60;98.50;;;;;;2068002;28;20194;-66
2023/02/26 03:27:29;;;;;;;7.53;1.85;;;-2.50;98.20;;;;;;2068365;28;20169;-65
2023/02/26 03:28:47;;;;;;;4.93;1.90;;;-2.60;97.90;;;;;;2067467;28;20276;-66
2023/02/26 03:30:01;;;;;;;4.03;1.58;;;-2.40;97.80;;;;;;2068207;28;20219;-66
2023/02/26 03:31:34;;;;;;;2.60;1.80;;;-2.40;97.50;;;;;;2061875;28;20197;-66
2023/02/26 03:33:01;;;;;;;2.28;1.60;;;-2.50;97.60;;;;;;2059536;28;20214;-65
2023/02/26 03:34:42;;;;;;;2.53;1.45;;;-2.50;97.80;;;;;;2059786;28;20694;-66
2023/02/26 03:36:08;;;;;;;4.20;1.60;;;-2.60;97.80;;;;;;2059187;28;20295;-66
2023/02/26 03:37:47;;;;;;;3.42;1.40;;;-2.50;98.10;;;;;;2069505;28;20185;-66
2023/02/26 03:39:04;;;;;;;4.35;1.60;;;-2.70;98.00;;;;;;2075056;28;20786;-66
2023/02/26 03:40:45;;;;;;;3.13;1.50;;;-2.70;99.20;;;;;;2064398;28;20228;-66
2023/02/26 03:42:20;;;;;;;5.45;1.67;;;-2.80;99.70;;;;;;2063820;28;20223;-65
2023/02/26 03:43:34;;;;;;;2.65;1.88;;;-2.90;99.70;;;;;;2062141;28;20180;-65
2023/02/26 03:44:59;;;;;;;2.70;1.75;;;-2.90;99.60;;;;;;2067664;28;20198;-65
2023/02/26 03:46:11;;;;;;;5.38;1.60;;;-2.80;99.60;;;;;;2065501;28;20286;-65
2023/02/26 03:47:16;;;;;;;3.58;1.58;;;-2.80;99.30;;;;;;2062354;28;20228;-65
2023/02/26 03:48:26;;;;;;;2.90;1.67;;;-2.80;99.50;;;;;;2056735;28;20224;-65
2023/02/26 03:49:42;;;;;;;4.32;2.25;;;-2.70;99.20;;;;;;2061544;28;20211;-66
2023/02/26 03:50:56;;;;;;;2.90;1.85;;;-2.60;99.10;;;;;;2065219;28;20208;-65
2023/02/26 03:52:03;;;;;;;3.05;1.85;;;-2.60;98.90;;;;;;2069010;28;20194;-65
2023/02/26 03:53:09;;;;;;;4.05;1.95;;;-2.70;99.00;;;;;;2068225;28;20190;-66
2023/02/26 03:54:30;;;;;;;3.63;1.58;;;-2.70;99.10;;;;;;2063350;28;20261;-66
2023/02/26 03:56:07;;;;;;;2.15;1.52;;;-2.90;99.40;;;;;;2064620;28;20189;-65
2023/02/26 03:57:10;;;;;;;2.80;1.73;;;-2.90;99.90;;;;;;2056597;28;20190;-66
2023/02/26 03:58:16;;;;;;;6.47;2.22;;;-2.90;99.90;;;;;;2071513;28;20195;-65
2023/02/26 03:59:22;;;;;;;2.83;2.42;;;-2.80;99.90;;;;;;2070598;28;20192;-65
2023/02/26 04:00:29;;;;;;;2.72;1.55;;;-2.80;99.70;;;;;;2070680;28;20217;-66
2023/02/26 04:01:53;;;;;;;5.78;2.00;;;-2.70;99.40;;;;;;2069806;28;20200;-65
2023/02/26 04:03:17;;;;;;;3.30;1.92;;;-2.70;98.70;;;;;;2060995;28;20186;-65
2023/02/26 04:04:51;;;;;;;4.13;1.95;;;-2.80;99.30;;;;;;2064905;28;20207;-65
2023/02/26 04:05:58;;;;;;;2.25;1.50;;;-2.80;99.30;;;;;;2063408;28;20752;-66
2023/02/26 04:07:04;;;;;;;2.83;1.80;;;-2.90;99.40;;;;;;2062693;28;20707;-66
2023/02/26 04:08:09;;;;;;;3.40;1.90;;;-2.90;99.60;;;;;;2061751;28;20190;-65
2023/02/26 04:09:15;;;;;;;4.07;1.90;;;-3.00;99.90;;;;;;2069372;28;20694;-65
2023/02/26 04:10:33;;;;;;;5.45;1.83;;;-3.00;99.90;;;;;;2069269;28;20216;-65
2023/02/26 04:11:39;;;;;;;4.22;2.00;;;-3.00;99.90;;;;;;2056680;28;20216;-65
2023/02/26 04:12:45;;;;;;;3.83;1.88;;;-3.10;99.90;;;;;;2052549;28;20270;-65
2023/02/26 04:13:51;;;;;;;6.13;2.40;;;-3.10;99.90;;;;;;2065356;28;20185;-65
2023/02/26 04:14:57;;;;;;;2.95;2.17;;;-3.10;99.90;;;;;;2078832;28;20866;-66
2023/02/26 04:16:03;;;;;;;2.25;1.80;;;-3.20;99.90;;;;;;2068783;28;20193;-66
2023/02/26 04:17:05;;;;;;;6.05;2.10;;;-3.10;99.90;;;;;;2069134;28;20226;-65
2023/02/26 04:18:10;;;;;;;3.20;1.95;;;-3.10;99.90;;;;;;2069356;28;20917;-65
2023/02/26 04:19:15;;;;;;;5.18;1.98;;;-3.10;99.90;;;;;;2070468;28;20198;-65
2023/02/26 04:20:21;;;;;;;3.67;1.98;;;-3.10;99.90;;;;;;2068663;28;20713;-66
2023/02/26 04:21:27;;;;;;;4.18;1.50;;;-3.00;99.90;;;;;;2066471;28;20209;-66
2023/02/26 04:22:33;;;;;;;3.38;1.67;;;-2.90;99.50;;;;;;2068875;28;20724;-66
2023/02/26 04:23:39;;;;;;;2.90;1.45;;;-2.90;99.50;;;;;;2054638;28;20686;-65
2023/02/26 04:24:44;;;;;;;5.07;1.88;;;-2.90;99.40;;;;;;2062992;28;20197;-65
2023/02/26 04:25:50;;;;;;;4.28;1.75;;;-3.00;99.90;;;;;;2070419;28;20208;-65
2023/02/26 04:26:56;;;;;;;3.92;1.80;;;-3.00;99.80;;;;;;2066069;28;20184;-66
2023/02/26 04:28:02;;;;;;;1.92;1.60;;;-2.90;99.60;;;;;;2068381;28;20180;-66
2023/02/26 04:29:04;;;;;;;4.55;1.48;;;-2.90;98.90;;;;;;2068944;28;20568;-65
2023/02/26 04:30:10;;;;;;;2.95;1.50;;;-2.90;98.80;;;;;;2066113;28;20206;-66
2023/02/26 04:31:16;;;;;;;2.13;1.50;;;-2.90;98.70;;;;;;2069491;28;20703;-65
2023/02/26 04:32:22;;;;;;;2.75;1.33;;;-2.90;98.70;;;;;;2069152;28;20341;-66
2023/02/26 04:33:27;;;;;;;2.47;1.73;;;-2.90;98.60;;;;;;2067597;28;20212;-65
2023/02/26 04:34:33;;;;;;;4.50;2.92;;;-2.90;98.70;;;;;;2069768;28;20178;-66
2023/02/26 04:35:39;;;;;;;3.15;1.40;;;-2.90;98.60;;;;;;2066178;28;20203;-66
2023/02/26 04:36:45;;;;;;;3.30;2.00;;;-2.90;98.30;;;;;;2069621;28;20191;-66
2023/02/26 04:37:50;;;;;;;2.40;1.63;;;-2.90;98.20;;;;;;2068445;28;20251;-66
2023/02/26 04:38:57;;;;;;;1.58;1.40;;;-2.90;98.20;;;;;;2069748;28;20191;-65
2023/02/26 04:40:04;;;;;;;2.70;1.33;;;-2.90;98.00;;;;;;2070088;28;20210;-65
2023/02/26 04:41:09;;;;;;;2.83;1.48;;;-3.00;97.60;;;;;;2065994;28;20208;-65
2023/02/26 04:42:14;;;;;;;1.92;1.50;;;-3.00;97.90;;;;;;2069562;28;20262;-66
2023/02/26 04:43:20;;;;;;;6.03;1.80;;;-2.90;97.80;;;;;;2069495;28;20203;-66
2023/02/26 04:44:26;;;;;;;1.83;1.30;;;-2.90;97.70;;;;;;2066564;28;20185;-66
2023/02/26 04:45:31;;;;;;;2.30;1.33;;;-2.90;97.90;;;;;;2069425;28;20245;-65
2023/02/26 04:46:37;;;;;;;3.75;1.42;;;-3.00;97.30;;;;;;2069399;28;20231;-65
2023/02/26 04:47:43;;;;;;;3.67;1.80;;;-3.00;97.20;;;;;;2068942;28;20666;-66
2023/02/26 04:48:48;;;;;;;1.77;1.30;;;-3.00;97.40;;;;;;2070289;28;20194;-66
2023/02/26 04:49:54;;;;;;;4.72;1.33;;;-3.10;97.20;;;;;;2066214;28;20321;-66
2023/02/26 04:51:00;;;;;;;3.13;1.70;;;-3.10;97.20;;;;;;2069130;28;20215;-65
2023/02/26 04:52:04;;;;;;;2.45;1.50;;;-3.10;97.20;;;;;;2068850;28;20639;-65
2023/02/26 04:53:09;;;;;;;4.28;1.23;;;-3.20;97.20;;;;;;2069479;28;20640;-66
2023/02/26 04:54:15;;;;;;;3.28;1.48;;;-3.20;97.40;;;;;;2069580;28;20209;-65
2023/02/26 04:55:21;;;;;;;4.15;1.60;;;-3.20;97.30;;;;;;2069011;28;20181;-65
2023/02/26 04:56:27;;;;;;;3.70;1.48;;;-3.30;97.00;;;;;;2062339;28;20176;-66
2023/02/26 04:57:33;;;;;;;2.35;1.42;;;-3.30;97.70;;;;;;2068481;28;20205;-66
2023/02/26 04:58:39;;;;;;;2.53;1.38;;;-3.40;98.20;;;;;;2066438;28;20661;-65
2023/02/26 04:59:44;;;;;;;1.98;1.38;;;-3.50;98.10;;;;;;2069263;28;20188;-65
2023/02/26 05:00:53;;;;;;;5.57;1.17;;;-3.50;98.40;;;;;;2069991;28;20192;-65
2023/02/26 05:01:59;;;;;;;2.15;1.30;;;-3.50;98.40;;;;;;2070020;28;20193;-65
2023/02/26 05:03:05;;;;;;;3.80;1.45;;;-3.50;98.70;;;;;;2069963;28;20229;-66
2023/02/26 05:04:09;;;;;;;5.93;1.58;;;-3.60;98.80;;;;;;2060358;28;20191;-66
2023/02/26 05:05:15;;;;;;;4.47;1.58;;;-3.60;98.80;;;;;;2060988;28;20682;-65
2023/02/26 05:06:21;;;;;;;3.78;1.30;;;-3.40;98.80;;;;;;2069193;28;20195;-66
2023/02/26 05:07:26;;;;;;;6.45;1.65;;;-3.40;98.60;;;;;;2069615;28;20276;-65
2023/02/26 05:08:32;;;;;;;2.95;1.63;;;-3.40;98.90;;;;;;2069546;28;20191;-65
2023/02/26 05:09:38;;;;;;;3.67;1.42;;;-3.40;98.80;;;;;;2066199;28;20199;-66
2023/02/26 05:10:44;;;;;;;2.55;1.33;;;-3.30;98.60;;;;;;2069191;28;20188;-65
2023/02/26 05:11:49;;;;;;;3.47;1.60;;;-3.40;99.10;;;;;;2068974;28;20181;-65
2023/02/26 05:12:55;;;;;;;1.60;1.38;;;-3.60;99.30;;;;;;2069332;28;20578;-65
2023/02/26 05:14:00;;;;;;;2.78;1.38;;;-3.70;99.60;;;;;;2070135;28;20203;-65
2023/02/26 05:15:05;;;;;;;3.20;1.60;;;-3.70;99.80;;;;;;2069130;28;20177;-65
2023/02/26 05:16:09;;;;;;;4.05;1.50;;;-3.70;99.90;;;;;;2068749;28;20220;-65
2023/02/26 05:17:15;;;;;;;2.53;1.52;;;-3.70;99.90;;;;;;2061499;28;20268;-66
2023/02/26 05:18:20;;;;;;;2.65;1.27;;;-3.70;99.90;;;;;;2064889;28;20187;-66
2023/02/26 05:19:26;;;;;;;2.85;1.60;;;-3.70;99.80;;;;;;2068629;28;20763;-66
2023/02/26 05:20:31;;;;;;;3.60;1.60;;;-3.70;99.70;;;;;;2060863;28;20253;-65
2023/02/26 05:21:37;;;;;;;2.50;1.27;;;-3.70;99.40;;;;;;2069393;28;20225;-65
2023/02/26 05:22:42;;;;;;;2.10;1.42;;;-3.80;99.80;;;;;;2069710;28;20188;-65
2023/02/26 05:23:47;;;;;;;3.53;1.52;;;-3.90;99.90;;;;;;2070028;28;20196;-65
2023/02/26 05:24:53;;;;;;;2.67;1.60;;;-3.90;99.90;;;;;;2069828;28;20188;-65
2023/02/26 05:25:59;;;;;;;3.75;1.60;;;-3.90;99.90;;;;;;2069935;28;20177;-66
2023/02/26 05:27:04;;;;;;;3.45;1.50;;;-4.00;99.90;;;;;;2065216;28;20195;-66
2023/02/26 05:28:09;;;;;;;3.78;1.42;;;-4.10;99.90;;;;;;2068052;28;20231;-65
2023/02/26 05:29:14;;;;;;;4.05;1.63;;;-4.20;99.90;;;;;;2069308;28;20207;-65
2023/02/26 05:30:20;;;;;;;5.63;1.80;;;-4.20;99.90;;;;;;2069809;28;20286;-65
2023/02/26 05:31:26;;;;;;;3.10;1.45;;;-4.30;99.90;;;;;;2069700;28;20184;-65
2023/02/26 05:32:31;;;;;;;4.40;1.63;;;-4.20;99.90;;;;;;2065425;28;20223;-65
2023/02/26 05:33:36;;;;;;;2.72;1.60;;;-4.20;99.90;;;;;;2069029;28;20211;-65
2023/02/26 05:34:42;;;;;;;2.25;1.50;;;-4.10;99.90;;;;;;2069145;28;20192;-66
2023/02/26 05:35:47;;;;;;;3.08;1.42;;;-4.10;99.90;;;;;;2065785;28;20176;-65
2023/02/26 05:36:53;;;;;;;3.35;1.70;;;-4.00;99.90;;;;;;2069096;28;20185;-65
2023/02/26 05:37:58;;;;;;;4.25;1.90;;;-3.80;99.90;;;;;;2068624;28;20620;-65
2023/02/26 05:39:04;;;;;;;4.97;1.80;;;-3.80;99.90;;;;;;2069942;28;20181;-65
2023/02/26 05:40:10;;;;;;;3.38;1.58;;;-3.90;99.90;;;;;;2068890;28;20197;-66
2023/02/26 05:41:14;;;;;;;4.85;1.92;;;-3.80;99.90;;;;;;2058009;28;20209;-66
2023/02/26 05:42:20;;;;;;;3.17;1.60;;;-3.90;99.90;;;;;;2068384;28;20215;-65
2023/02/26 05:43:26;;;;;;;3.70;1.80;;;-3.80;99.90;;;;;;2068929;28;20182;-66
2023/02/26 05:44:31;;;;;;;5.40;1.80;;;-3.90;99.90;;;;;;2066019;28;20280;-65
2023/02/26 05:45:36;;;;;;;2.70;1.60;;;-4.00;99.90;;;;;;2068942;28;20218;-65
2023/02/26 05:46:42;;;;;;;2.85;1.48;;;-4.00;99.90;;;;;;2069403;28;20249;-65
2023/02/26 05:47:47;;;;;;;2.17;1.23;;;-4.10;99.90;;;;;;2068993;28;20196;-66
2023/02/26 05:48:53;;;;;;;4.50;1.63;;;-4.10;99.90;;;;;;2069840;28;20183;-66
2023/02/26 05:49:58;;;;;;;4.57;1.40;;;-4.00;99.90;;;;;;2065426;28;20184;-66
2023/02/26 05:51:04;;;;;;;2.55;1.42;;;-4.00;99.90;;;;;;2069068;28;20178;-65
2023/02/26 05:52:04;;;;;;;4.00;1.70;;;-4.10;99.90;;;;;;2068718;28;20270;-66
2023/02/26 05:53:10;;;;;;;3.15;1.75;;;-4.10;99.90;;;;;;2068979;28;20183;-66
2023/02/26 05:54:15;;;;;;;3.15;1.55;;;-4.10;99.90;;;;;;2068980;28;20711;-66
2023/02/26 05:55:21;;;;;;;5.05;1.95;;;-4.00;99.90;;;;;;2069712;28;20628;-66
2023/02/26 05:56:26;;;;;;;2.92;1.60;;;-3.90;99.90;;;;;;2065710;28;20185;-66
2023/02/26 05:57:31;;;;;;;2.75;1.65;;;-3.90;99.90;;;;;;2064688;28;20204;-66
2023/02/26 05:58:37;;;;;;;3.08;1.58;;;-3.80;99.90;;;;;;2058496;28;20195;-66
2023/02/26 05:59:42;;;;;;;2.10;1.63;;;-3.90;99.90;;;;;;2067256;28;20183;-66
2023/02/26 06:00:48;;;;;;;3.30;1.60;;;-3.90;99.90;;;;;;2069408;28;20209;-66
2023/02/26 06:01:53;;;;;;;5.45;1.60;;;-3.80;99.90;;;;;;2066027;28;20203;-66
2023/02/26 06:02:59;;;;;;;4.38;1.73;;;-3.80;99.90;;;;;;2068686;28;20201;-66
2023/02/26 06:04:05;;;;;;;2.63;1.70;;;-3.80;99.90;;;;;;2068923;28;20219;-66
2023/02/26 06:05:10;;;;;;;4.53;1.95;;;-3.80;99.90;;;;;;2065698;28;20561;-66
2023/02/26 06:06:17;;;;;;;4.07;1.52;;;-3.80;99.90;;;;;;2068885;28;20193;-66
2023/02/26 06:07:23;;;;;;;4.22;1.90;;;-3.90;99.90;;;;;;2068889;28;20210;-65
2023/02/26 06:08:29;;;;;;;4.57;1.92;;;-4.00;99.90;;;;;;2068411;28;20759;-66
2023/02/26 06:09:34;;;;;;;2.40;1.50;;;-4.00;99.90;;;;;;2069717;28;20570;-66
2023/02/26 06:10:39;;;;;;;2.90;1.70;;;-3.90;99.90;;;;;;2065599;28;20216;-65
2023/02/26 06:11:45;;;;;;;3.33;1.85;;;-3.80;99.90;;;;;;2068894;28;20185;-66
2023/02/26 06:12:50;;;;;;;2.55;1.70;;;-3.80;99.90;;;;;;2067499;28;20203;-66
2023/02/26 06:13:56;;;;;;;3.65;2.47;;;-3.80;99.90;;;;;;2068978;28;20258;-66
2023/02/26 06:15:03;;;;;;;2.80;1.30;;;-3.90;99.90;;;;;;2069420;28;20186;-65
2023/02/26 06:16:05;;;;;;;3.47;1.67;;;-3.80;99.90;;;;;;2068048;28;20200;-65